sensor_id;sensor_type;location;lat;lon;timestamp;P1;durP1;ratioP1;P2;durP2;ratioP2
34505;SDS011;20748;42.632;23.198;2023-05-07T00:01:53;8.45;;;3.78;;
34505;SDS011;20748;42.632;23.198;2023-05-07T00:04:25;7.03;;;3.83;;
34505;SDS011;20748;42.632;23.198;2023-05-07T00:06:59;5.95;;;3.70;;
34505;SDS011;20748;42.632;23.198;2023-05-07T00:09:33;7.53;;;4.60;;
34505;SDS011;20748;42.632;23.198;2023-05-07T00:12:06;5.88;;;3.88;;
34505;SDS011;20748;42.632;23.198;2023-05-07T00:14:39;9.27;;;4.22;;
34505;SDS011;20748;42.632;23.198;2023-05-07T00:17:11;6.10;;;2.78;;
34505;SDS011;20748;42.632;23.198;2023-05-07T00:19:43;5.90;;;3.38;;
34505;SDS011;20748;42.632;23.198;2023-05-07T00:22:16;6.88;;;3.25;;
34505;SDS011;20748;42.632;23.198;2023-05-07T00:24:48;6.75;;;4.00;;
34505;SDS011;20748;42.632;23.198;2023-05-07T00:27:21;8.65;;;3.85;;
34505;SDS011;20748;42.632;23.198;2023-05-07T00:29:53;7.80;;;4.15;;
34505;SDS011;20748;42.632;23.198;2023-05-07T00:32:26;8.63;;;4.68;;
34505;SDS011;20748;42.632;23.198;2023-05-07T00:34:58;9.10;;;4.20;;
34505;SDS011;20748;42.632;23.198;2023-05-07T00:37:30;9.20;;;4.63;;
34505;SDS011;20748;42.632;23.198;2023-05-07T00:40:03;10.00;;;4.45;;
34505;SDS011;20748;42.632;23.198;2023-05-07T00:42:39;7.88;;;3.60;;
34505;SDS011;20748;42.632;23.198;2023-05-07T00:45:11;7.93;;;3.55;;
34505;SDS011;20748;42.632;23.198;2023-05-07T00:47:44;9.07;;;3.72;;
34505;SDS011;20748;42.632;23.198;2023-05-07T00:50:16;8.43;;;4.10;;
34505;SDS011;20748;42.632;23.198;2023-05-07T00:52:50;6.68;;;3.63;;
34505;SDS011;20748;42.632;23.198;2023-05-07T00:55:23;6.85;;;3.80;;
34505;SDS011;20748;42.632;23.198;2023-05-07T00:57:56;7.43;;;4.03;;
34505;SDS011;20748;42.632;23.198;2023-05-07T01:00:28;6.82;;;4.53;;
34505;SDS011;20748;42.632;23.198;2023-05-07T01:03:01;9.05;;;4.15;;
34505;SDS011;20748;42.632;23.198;2023-05-07T01:05:36;7.65;;;3.42;;
34505;SDS011;20748;42.632;23.198;2023-05-07T01:08:09;11.10;;;4.72;;
34505;SDS011;20748;42.632;23.198;2023-05-07T01:10:42;10.80;;;4.13;;
34505;SDS011;20748;42.632;23.198;2023-05-07T01:13:17;9.45;;;4.22;;
34505;SDS011;20748;42.632;23.198;2023-05-07T01:15:50;7.10;;;4.00;;
34505;SDS011;20748;42.632;23.198;2023-05-07T01:18:23;6.72;;;3.78;;
34505;SDS011;20748;42.632;23.198;2023-05-07T01:20:57;7.45;;;3.95;;
34505;SDS011;20748;42.632;23.198;2023-05-07T01:23:32;8.90;;;4.57;;
34505;SDS011;20748;42.632;23.198;2023-05-07T01:26:06;9.90;;;4.43;;
34505;SDS011;20748;42.632;23.198;2023-05-07T01:28:40;9.10;;;4.85;;
34505;SDS011;20748;42.632;23.198;2023-05-07T01:31:12;9.90;;;4.00;;
34505;SDS011;20748;42.632;23.198;2023-05-07T01:33:46;9.60;;;4.15;;
34505;SDS011;20748;42.632;23.198;2023-05-07T01:36:21;7.68;;;3.92;;
34505;SDS011;20748;42.632;23.198;2023-05-07T01:38:58;6.50;;;3.83;;
34505;SDS011;20748;42.632;23.198;2023-05-07T01:41:31;8.60;;;3.67;;
34505;SDS011;20748;42.632;23.198;2023-05-07T01:44:04;6.65;;;3.72;;
34505;SDS011;20748;42.632;23.198;2023-05-07T01:46:37;6.75;;;3.88;;
34505;SDS011;20748;42.632;23.198;2023-05-07T01:49:10;6.82;;;3.70;;
34505;SDS011;20748;42.632;23.198;2023-05-07T01:51:42;8.35;;;4.40;;
34505;SDS011;20748;42.632;23.198;2023-05-07T01:54:16;10.50;;;3.90;;
34505;SDS011;20748;42.632;23.198;2023-05-07T01:56:49;8.63;;;4.38;;
34505;SDS011;20748;42.632;23.198;2023-05-07T01:59:21;7.97;;;3.95;;
34505;SDS011;20748;42.632;23.198;2023-05-07T02:01:54;5.85;;;3.42;;
34505;SDS011;20748;42.632;23.198;2023-05-07T02:04:26;8.45;;;4.80;;
34505;SDS011;20748;42.632;23.198;2023-05-07T02:06:58;11.00;;;5.18;;
34505;SDS011;20748;42.632;23.198;2023-05-07T02:09:32;8.07;;;4.40;;
34505;SDS011;20748;42.632;23.198;2023-05-07T02:12:05;12.68;;;6.40;;
34505;SDS011;20748;42.632;23.198;2023-05-07T02:14:37;8.63;;;4.75;;
34505;SDS011;20748;42.632;23.198;2023-05-07T02:17:10;6.50;;;4.25;;
34505;SDS011;20748;42.632;23.198;2023-05-07T02:19:43;8.75;;;4.28;;
34505;SDS011;20748;42.632;23.198;2023-05-07T02:22:15;16.15;;;4.85;;
34505;SDS011;20748;42.632;23.198;2023-05-07T02:24:48;14.27;;;6.10;;
34505;SDS011;20748;42.632;23.198;2023-05-07T02:27:21;11.65;;;5.93;;
34505;SDS011;20748;42.632;23.198;2023-05-07T02:29:53;12.02;;;5.95;;
34505;SDS011;20748;42.632;23.198;2023-05-07T02:32:26;12.88;;;6.30;;
34505;SDS011;20748;42.632;23.198;2023-05-07T02:34:58;8.57;;;5.32;;
34505;SDS011;20748;42.632;23.198;2023-05-07T02:37:31;13.52;;;7.97;;
34505;SDS011;20748;42.632;23.198;2023-05-07T02:40:05;10.52;;;5.93;;
34505;SDS011;20748;42.632;23.198;2023-05-07T02:42:38;11.40;;;5.25;;
34505;SDS011;20748;42.632;23.198;2023-05-07T02:45:10;13.13;;;4.97;;
34505;SDS011;20748;42.632;23.198;2023-05-07T02:47:43;8.55;;;4.97;;
34505;SDS011;20748;42.632;23.198;2023-05-07T02:50:16;9.68;;;5.50;;
34505;SDS011;20748;42.632;23.198;2023-05-07T02:52:49;6.00;;;4.18;;
34505;SDS011;20748;42.632;23.198;2023-05-07T02:55:22;8.05;;;4.72;;
34505;SDS011;20748;42.632;23.198;2023-05-07T02:57:54;8.32;;;4.55;;
34505;SDS011;20748;42.632;23.198;2023-05-07T03:00:28;8.00;;;4.93;;
34505;SDS011;20748;42.632;23.198;2023-05-07T03:03:11;10.45;;;4.97;;
34505;SDS011;20748;42.632;23.198;2023-05-07T03:05:44;10.00;;;5.25;;
34505;SDS011;20748;42.632;23.198;2023-05-07T03:08:16;10.60;;;5.82;;
34505;SDS011;20748;42.632;23.198;2023-05-07T03:10:49;10.13;;;5.30;;
34505;SDS011;20748;42.632;23.198;2023-05-07T03:13:22;12.65;;;7.57;;
34505;SDS011;20748;42.632;23.198;2023-05-07T03:15:55;9.30;;;5.45;;
34505;SDS011;20748;42.632;23.198;2023-05-07T03:18:27;11.27;;;6.72;;
34505;SDS011;20748;42.632;23.198;2023-05-07T03:20:59;13.63;;;7.13;;
34505;SDS011;20748;42.632;23.198;2023-05-07T03:23:32;9.73;;;5.38;;
34505;SDS011;20748;42.632;23.198;2023-05-07T03:26:05;10.82;;;6.45;;
34505;SDS011;20748;42.632;23.198;2023-05-07T03:28:38;10.55;;;5.78;;
34505;SDS011;20748;42.632;23.198;2023-05-07T03:31:14;8.52;;;5.25;;
34505;SDS011;20748;42.632;23.198;2023-05-07T03:33:50;9.65;;;5.75;;
34505;SDS011;20748;42.632;23.198;2023-05-07T03:36:23;12.60;;;6.35;;
34505;SDS011;20748;42.632;23.198;2023-05-07T03:38:56;16.55;;;9.20;;
34505;SDS011;20748;42.632;23.198;2023-05-07T03:41:33;11.68;;;7.90;;
34505;SDS011;20748;42.632;23.198;2023-05-07T03:44:06;17.27;;;9.32;;
34505;SDS011;20748;42.632;23.198;2023-05-07T03:46:39;16.38;;;9.18;;
34505;SDS011;20748;42.632;23.198;2023-05-07T03:49:14;11.43;;;7.07;;
34505;SDS011;20748;42.632;23.198;2023-05-07T03:51:46;11.65;;;7.60;;
34505;SDS011;20748;42.632;23.198;2023-05-07T03:54:19;13.60;;;7.35;;
34505;SDS011;20748;42.632;23.198;2023-05-07T03:56:52;14.85;;;7.45;;
34505;SDS011;20748;42.632;23.198;2023-05-07T03:59:25;15.13;;;8.80;;
34505;SDS011;20748;42.632;23.198;2023-05-07T04:01:58;12.10;;;8.15;;
34505;SDS011;20748;42.632;23.198;2023-05-07T04:04:33;13.00;;;9.00;;
34505;SDS011;20748;42.632;23.198;2023-05-07T04:07:06;15.93;;;9.27;;
34505;SDS011;20748;42.632;23.198;2023-05-07T04:09:44;16.13;;;9.57;;
34505;SDS011;20748;42.632;23.198;2023-05-07T04:12:17;17.63;;;10.05;;
34505;SDS011;20748;42.632;23.198;2023-05-07T04:14:49;19.48;;;13.05;;
34505;SDS011;20748;42.632;23.198;2023-05-07T04:17:21;21.67;;;11.73;;
34505;SDS011;20748;42.632;23.198;2023-05-07T04:19:54;17.15;;;11.43;;
34505;SDS011;20748;42.632;23.198;2023-05-07T04:22:27;17.15;;;11.07;;
34505;SDS011;20748;42.632;23.198;2023-05-07T04:24:59;18.27;;;12.10;;
34505;SDS011;20748;42.632;23.198;2023-05-07T04:27:33;17.13;;;12.52;;
34505;SDS011;20748;42.632;23.198;2023-05-07T04:30:06;17.00;;;11.63;;
34505;SDS011;20748;42.632;23.198;2023-05-07T04:32:42;16.63;;;10.88;;
34505;SDS011;20748;42.632;23.198;2023-05-07T04:35:16;13.38;;;8.88;;
34505;SDS011;20748;42.632;23.198;2023-05-07T04:37:48;13.48;;;8.23;;
34505;SDS011;20748;42.632;23.198;2023-05-07T04:40:21;13.23;;;7.88;;
34505;SDS011;20748;42.632;23.198;2023-05-07T04:42:54;10.43;;;7.40;;
34505;SDS011;20748;42.632;23.198;2023-05-07T04:45:27;10.02;;;6.32;;
34505;SDS011;20748;42.632;23.198;2023-05-07T04:47:59;11.43;;;7.35;;
34505;SDS011;20748;42.632;23.198;2023-05-07T04:50:33;17.27;;;8.88;;
34505;SDS011;20748;42.632;23.198;2023-05-07T04:53:07;12.73;;;7.60;;
34505;SDS011;20748;42.632;23.198;2023-05-07T04:55:40;11.60;;;7.10;;
34505;SDS011;20748;42.632;23.198;2023-05-07T04:58:13;13.05;;;7.47;;
34505;SDS011;20748;42.632;23.198;2023-05-07T05:00:46;16.20;;;8.07;;
34505;SDS011;20748;42.632;23.198;2023-05-07T05:03:18;12.30;;;7.82;;
34505;SDS011;20748;42.632;23.198;2023-05-07T05:05:51;11.88;;;8.50;;
34505;SDS011;20748;42.632;23.198;2023-05-07T05:08:25;13.95;;;7.10;;
34505;SDS011;20748;42.632;23.198;2023-05-07T05:10:58;9.73;;;6.25;;
34505;SDS011;20748;42.632;23.198;2023-05-07T05:13:31;12.60;;;7.57;;
34505;SDS011;20748;42.632;23.198;2023-05-07T05:16:05;8.27;;;5.93;;
34505;SDS011;20748;42.632;23.198;2023-05-07T05:18:38;7.97;;;4.43;;
34505;SDS011;20748;42.632;23.198;2023-05-07T05:21:10;8.13;;;3.92;;
34505;SDS011;20748;42.632;23.198;2023-05-07T05:23:43;9.77;;;3.78;;
34505;SDS011;20748;42.632;23.198;2023-05-07T05:26:17;7.10;;;4.00;;
34505;SDS011;20748;42.632;23.198;2023-05-07T05:28:50;9.38;;;3.40;;
34505;SDS011;20748;42.632;23.198;2023-05-07T05:31:25;6.00;;;3.15;;
34505;SDS011;20748;42.632;23.198;2023-05-07T05:33:58;6.70;;;3.80;;
34505;SDS011;20748;42.632;23.198;2023-05-07T05:36:30;6.63;;;3.90;;
34505;SDS011;20748;42.632;23.198;2023-05-07T05:39:03;6.93;;;3.70;;
34505;SDS011;20748;42.632;23.198;2023-05-07T05:41:36;10.38;;;4.00;;
34505;SDS011;20748;42.632;23.198;2023-05-07T05:44:09;6.30;;;3.45;;
34505;SDS011;20748;42.632;23.198;2023-05-07T05:46:42;8.60;;;4.40;;
34505;SDS011;20748;42.632;23.198;2023-05-07T05:49:14;10.93;;;3.38;;
34505;SDS011;20748;42.632;23.198;2023-05-07T05:51:47;5.97;;;3.22;;
34505;SDS011;20748;42.632;23.198;2023-05-07T05:54:19;5.63;;;4.03;;
34505;SDS011;20748;42.632;23.198;2023-05-07T05:56:52;7.72;;;4.07;;
34505;SDS011;20748;42.632;23.198;2023-05-07T05:59:26;9.50;;;4.15;;
34505;SDS011;20748;42.632;23.198;2023-05-07T06:01:58;5.85;;;3.80;;
34505;SDS011;20748;42.632;23.198;2023-05-07T06:04:31;7.38;;;3.38;;
34505;SDS011;20748;42.632;23.198;2023-05-07T06:07:04;5.82;;;3.55;;
34505;SDS011;20748;42.632;23.198;2023-05-07T06:09:36;4.97;;;3.25;;
34505;SDS011;20748;42.632;23.198;2023-05-07T06:12:08;6.85;;;3.67;;
34505;SDS011;20748;42.632;23.198;2023-05-07T06:14:43;7.65;;;4.15;;
34505;SDS011;20748;42.632;23.198;2023-05-07T06:17:16;5.32;;;3.17;;
34505;SDS011;20748;42.632;23.198;2023-05-07T06:19:52;7.03;;;3.92;;
34505;SDS011;20748;42.632;23.198;2023-05-07T06:22:25;6.10;;;3.20;;
34505;SDS011;20748;42.632;23.198;2023-05-07T06:24:59;7.35;;;3.35;;
34505;SDS011;20748;42.632;23.198;2023-05-07T06:27:32;7.25;;;3.20;;
34505;SDS011;20748;42.632;23.198;2023-05-07T06:30:07;4.20;;;3.00;;
34505;SDS011;20748;42.632;23.198;2023-05-07T06:32:41;4.40;;;2.92;;
34505;SDS011;20748;42.632;23.198;2023-05-07T06:35:16;3.90;;;2.88;;
34505;SDS011;20748;42.632;23.198;2023-05-07T06:37:48;7.72;;;3.33;;
34505;SDS011;20748;42.632;23.198;2023-05-07T06:40:26;5.10;;;2.92;;
34505;SDS011;20748;42.632;23.198;2023-05-07T06:42:58;6.43;;;2.72;;
34505;SDS011;20748;42.632;23.198;2023-05-07T06:45:51;4.30;;;2.78;;
34505;SDS011;20748;42.632;23.198;2023-05-07T06:48:24;5.43;;;3.22;;
34505;SDS011;20748;42.632;23.198;2023-05-07T06:51:04;3.92;;;2.72;;
34505;SDS011;20748;42.632;23.198;2023-05-07T06:53:37;3.85;;;2.50;;
34505;SDS011;20748;42.632;23.198;2023-05-07T06:56:10;6.38;;;3.38;;
34505;SDS011;20748;42.632;23.198;2023-05-07T06:58:43;4.22;;;3.00;;
34505;SDS011;20748;42.632;23.198;2023-05-07T07:01:17;6.68;;;3.05;;
34505;SDS011;20748;42.632;23.198;2023-05-07T07:03:49;4.47;;;3.03;;
34505;SDS011;20748;42.632;23.198;2023-05-07T07:06:24;6.90;;;3.63;;
34505;SDS011;20748;42.632;23.198;2023-05-07T07:08:56;5.85;;;3.55;;
34505;SDS011;20748;42.632;23.198;2023-05-07T07:11:29;4.75;;;2.80;;
34505;SDS011;20748;42.632;23.198;2023-05-07T07:14:02;7.53;;;3.60;;
34505;SDS011;20748;42.632;23.198;2023-05-07T07:16:37;4.35;;;2.97;;
34505;SDS011;20748;42.632;23.198;2023-05-07T07:19:10;5.78;;;3.20;;
34505;SDS011;20748;42.632;23.198;2023-05-07T07:21:43;5.13;;;3.10;;
34505;SDS011;20748;42.632;23.198;2023-05-07T07:24:17;8.43;;;4.07;;
34505;SDS011;20748;42.632;23.198;2023-05-07T07:26:56;4.68;;;3.05;;
34505;SDS011;20748;42.632;23.198;2023-05-07T07:29:30;6.30;;;3.67;;
34505;SDS011;20748;42.632;23.198;2023-05-07T07:32:04;4.60;;;3.38;;
34505;SDS011;20748;42.632;23.198;2023-05-07T07:34:37;4.38;;;3.08;;
34505;SDS011;20748;42.632;23.198;2023-05-07T07:37:09;5.07;;;2.88;;
34505;SDS011;20748;42.632;23.198;2023-05-07T07:39:42;6.45;;;3.47;;
34505;SDS011;20748;42.632;23.198;2023-05-07T07:42:16;4.68;;;3.00;;
34505;SDS011;20748;42.632;23.198;2023-05-07T07:44:48;5.00;;;2.90;;
34505;SDS011;20748;42.632;23.198;2023-05-07T07:47:24;5.75;;;4.22;;
34505;SDS011;20748;42.632;23.198;2023-05-07T07:49:57;3.42;;;2.38;;
34505;SDS011;20748;42.632;23.198;2023-05-07T07:52:30;3.88;;;2.72;;
34505;SDS011;20748;42.632;23.198;2023-05-07T07:55:02;4.65;;;2.95;;
34505;SDS011;20748;42.632;23.198;2023-05-07T07:57:36;6.38;;;3.05;;
34505;SDS011;20748;42.632;23.198;2023-05-07T08:00:10;3.50;;;2.75;;
34505;SDS011;20748;42.632;23.198;2023-05-07T08:05:28;4.93;;;3.08;;
34505;SDS011;20748;42.632;23.198;2023-05-07T08:08:01;5.18;;;3.40;;
34505;SDS011;20748;42.632;23.198;2023-05-07T08:10:37;5.38;;;2.88;;
34505;SDS011;20748;42.632;23.198;2023-05-07T08:13:17;6.30;;;3.47;;
34505;SDS011;20748;42.632;23.198;2023-05-07T08:15:50;5.00;;;3.35;;
34505;SDS011;20748;42.632;23.198;2023-05-07T08:18:23;7.35;;;3.75;;
34505;SDS011;20748;42.632;23.198;2023-05-07T08:20:58;8.07;;;3.20;;
34505;SDS011;20748;42.632;23.198;2023-05-07T08:23:31;5.50;;;3.15;;
34505;SDS011;20748;42.632;23.198;2023-05-07T08:26:07;5.82;;;3.80;;
34505;SDS011;20748;42.632;23.198;2023-05-07T08:28:41;5.22;;;3.30;;
34505;SDS011;20748;42.632;23.198;2023-05-07T08:31:13;7.20;;;3.53;;
34505;SDS011;20748;42.632;23.198;2023-05-07T08:33:49;5.03;;;3.22;;
34505;SDS011;20748;42.632;23.198;2023-05-07T08:36:21;4.38;;;3.33;;
34505;SDS011;20748;42.632;23.198;2023-05-07T08:38:54;5.25;;;3.42;;
34505;SDS011;20748;42.632;23.198;2023-05-07T08:41:26;7.95;;;3.78;;
34505;SDS011;20748;42.632;23.198;2023-05-07T08:43:59;5.25;;;3.20;;
34505;SDS011;20748;42.632;23.198;2023-05-07T08:46:35;5.50;;;3.75;;
34505;SDS011;20748;42.632;23.198;2023-05-07T08:49:09;7.50;;;3.72;;
34505;SDS011;20748;42.632;23.198;2023-05-07T08:51:42;4.80;;;3.15;;
34505;SDS011;20748;42.632;23.198;2023-05-07T08:54:15;9.25;;;4.60;;
34505;SDS011;20748;42.632;23.198;2023-05-07T08:56:49;5.05;;;3.60;;
34505;SDS011;20748;42.632;23.198;2023-05-07T08:59:22;4.90;;;2.88;;
34505;SDS011;20748;42.632;23.198;2023-05-07T09:01:54;6.00;;;3.42;;
34505;SDS011;20748;42.632;23.198;2023-05-07T09:04:28;7.05;;;3.33;;
34505;SDS011;20748;42.632;23.198;2023-05-07T09:07:00;4.90;;;3.20;;
34505;SDS011;20748;42.632;23.198;2023-05-07T09:09:40;7.68;;;3.40;;
34505;SDS011;20748;42.632;23.198;2023-05-07T09:12:12;7.38;;;4.07;;
34505;SDS011;20748;42.632;23.198;2023-05-07T09:14:45;6.38;;;3.70;;
34505;SDS011;20748;42.632;23.198;2023-05-07T09:17:18;5.90;;;3.92;;
34505;SDS011;20748;42.632;23.198;2023-05-07T09:19:51;5.35;;;3.70;;
34505;SDS011;20748;42.632;23.198;2023-05-07T09:22:25;5.53;;;3.58;;
34505;SDS011;20748;42.632;23.198;2023-05-07T09:25:04;8.85;;;4.30;;
34505;SDS011;20748;42.632;23.198;2023-05-07T09:27:38;4.65;;;3.10;;
34505;SDS011;20748;42.632;23.198;2023-05-07T09:30:10;4.75;;;3.05;;
34505;SDS011;20748;42.632;23.198;2023-05-07T09:32:44;7.45;;;3.45;;
34505;SDS011;20748;42.632;23.198;2023-05-07T09:35:22;5.75;;;3.53;;
34505;SDS011;20748;42.632;23.198;2023-05-07T09:38:01;4.45;;;3.42;;
34505;SDS011;20748;42.632;23.198;2023-05-07T09:40:38;4.60;;;2.88;;
34505;SDS011;20748;42.632;23.198;2023-05-07T09:43:15;3.88;;;2.70;;
34505;SDS011;20748;42.632;23.198;2023-05-07T09:45:57;4.78;;;2.90;;
34505;SDS011;20748;42.632;23.198;2023-05-07T09:48:32;5.13;;;2.92;;
34505;SDS011;20748;42.632;23.198;2023-05-07T09:51:18;4.22;;;2.80;;
34505;SDS011;20748;42.632;23.198;2023-05-07T09:53:56;4.38;;;2.85;;
34505;SDS011;20748;42.632;23.198;2023-05-07T09:56:29;3.97;;;2.80;;
34505;SDS011;20748;42.632;23.198;2023-05-07T09:59:03;5.90;;;3.20;;
34505;SDS011;20748;42.632;23.198;2023-05-07T10:01:38;10.60;;;5.30;;
34505;SDS011;20748;42.632;23.198;2023-05-07T10:04:13;12.55;;;6.05;;
34505;SDS011;20748;42.632;23.198;2023-05-07T10:06:49;5.32;;;3.30;;
34505;SDS011;20748;42.632;23.198;2023-05-07T10:09:22;5.95;;;2.70;;
34505;SDS011;20748;42.632;23.198;2023-05-07T10:11:54;4.97;;;3.13;;
34505;SDS011;20748;42.632;23.198;2023-05-07T10:14:29;5.63;;;2.95;;
34505;SDS011;20748;42.632;23.198;2023-05-07T10:17:01;8.50;;;3.40;;
34505;SDS011;20748;42.632;23.198;2023-05-07T10:19:34;4.55;;;2.80;;
34505;SDS011;20748;42.632;23.198;2023-05-07T10:22:10;3.63;;;2.72;;
34505;SDS011;20748;42.632;23.198;2023-05-07T10:24:48;5.70;;;2.67;;
34505;SDS011;20748;42.632;23.198;2023-05-07T10:27:24;4.07;;;2.70;;
34505;SDS011;20748;42.632;23.198;2023-05-07T10:30:04;7.70;;;3.08;;
34505;SDS011;20748;42.632;23.198;2023-05-07T10:32:47;3.58;;;2.72;;
34505;SDS011;20748;42.632;23.198;2023-05-07T10:35:30;3.85;;;2.58;;
34505;SDS011;20748;42.632;23.198;2023-05-07T10:38:07;5.32;;;3.30;;
34505;SDS011;20748;42.632;23.198;2023-05-07T10:40:43;6.28;;;3.33;;
34505;SDS011;20748;42.632;23.198;2023-05-07T10:43:21;4.05;;;2.63;;
34505;SDS011;20748;42.632;23.198;2023-05-07T10:46:15;4.63;;;3.00;;
34505;SDS011;20748;42.632;23.198;2023-05-07T10:49:07;3.80;;;2.60;;
34505;SDS011;20748;42.632;23.198;2023-05-07T10:55:22;4.72;;;2.85;;
34505;SDS011;20748;42.632;23.198;2023-05-07T10:58:23;3.95;;;2.50;;
34505;SDS011;20748;42.632;23.198;2023-05-07T11:01:08;4.00;;;2.47;;
34505;SDS011;20748;42.632;23.198;2023-05-07T11:09:56;3.95;;;2.70;;
34505;SDS011;20748;42.632;23.198;2023-05-07T11:12:50;6.85;;;3.35;;
34505;SDS011;20748;42.632;23.198;2023-05-07T11:15:39;6.75;;;3.90;;
34505;SDS011;20748;42.632;23.198;2023-05-07T11:18:21;5.47;;;2.67;;
34505;SDS011;20748;42.632;23.198;2023-05-07T11:20:56;3.22;;;2.42;;
34505;SDS011;20748;42.632;23.198;2023-05-07T11:23:56;3.95;;;2.35;;
34505;SDS011;20748;42.632;23.198;2023-05-07T11:26:45;3.38;;;2.60;;
34505;SDS011;20748;42.632;23.198;2023-05-07T11:29:21;3.42;;;2.50;;
34505;SDS011;20748;42.632;23.198;2023-05-07T11:32:00;5.00;;;2.80;;
34505;SDS011;20748;42.632;23.198;2023-05-07T11:34:39;5.40;;;2.83;;
34505;SDS011;20748;42.632;23.198;2023-05-07T11:37:16;5.38;;;2.80;;
34505;SDS011;20748;42.632;23.198;2023-05-07T11:40:02;4.15;;;3.00;;
34505;SDS011;20748;42.632;23.198;2023-05-07T11:42:37;6.30;;;2.90;;
34505;SDS011;20748;42.632;23.198;2023-05-07T11:45:12;3.65;;;2.20;;
34505;SDS011;20748;42.632;23.198;2023-05-07T11:47:55;5.10;;;2.95;;
34505;SDS011;20748;42.632;23.198;2023-05-07T11:50:28;4.20;;;2.67;;
34505;SDS011;20748;42.632;23.198;2023-05-07T11:53:00;2.95;;;2.38;;
34505;SDS011;20748;42.632;23.198;2023-05-07T11:55:39;6.10;;;2.92;;
34505;SDS011;20748;42.632;23.198;2023-05-07T11:58:12;4.50;;;2.58;;
34505;SDS011;20748;42.632;23.198;2023-05-07T12:00:52;4.72;;;2.65;;
34505;SDS011;20748;42.632;23.198;2023-05-07T12:03:25;4.38;;;2.75;;
34505;SDS011;20748;42.632;23.198;2023-05-07T12:06:03;4.03;;;2.75;;
34505;SDS011;20748;42.632;23.198;2023-05-07T12:08:38;9.25;;;2.97;;
34505;SDS011;20748;42.632;23.198;2023-05-07T12:11:15;5.32;;;2.63;;
34505;SDS011;20748;42.632;23.198;2023-05-07T12:13:49;6.45;;;3.70;;
34505;SDS011;20748;42.632;23.198;2023-05-07T12:16:22;7.10;;;2.45;;
34505;SDS011;20748;42.632;23.198;2023-05-07T12:18:55;4.97;;;2.45;;
34505;SDS011;20748;42.632;23.198;2023-05-07T12:21:30;3.50;;;2.35;;
34505;SDS011;20748;42.632;23.198;2023-05-07T12:24:03;4.07;;;2.70;;
34505;SDS011;20748;42.632;23.198;2023-05-07T12:26:37;3.45;;;2.30;;
34505;SDS011;20748;42.632;23.198;2023-05-07T12:29:10;4.60;;;2.50;;
34505;SDS011;20748;42.632;23.198;2023-05-07T12:31:43;4.15;;;2.80;;
34505;SDS011;20748;42.632;23.198;2023-05-07T12:34:16;5.18;;;3.00;;
34505;SDS011;20748;42.632;23.198;2023-05-07T12:36:48;4.63;;;3.40;;
34505;SDS011;20748;42.632;23.198;2023-05-07T12:39:20;7.03;;;4.75;;
34505;SDS011;20748;42.632;23.198;2023-05-07T12:41:53;4.63;;;3.08;;
34505;SDS011;20748;42.632;23.198;2023-05-07T12:44:28;3.90;;;2.80;;
34505;SDS011;20748;42.632;23.198;2023-05-07T12:47:02;3.03;;;2.20;;
34505;SDS011;20748;42.632;23.198;2023-05-07T12:49:35;6.13;;;2.88;;
34505;SDS011;20748;42.632;23.198;2023-05-07T12:52:09;4.72;;;2.85;;
34505;SDS011;20748;42.632;23.198;2023-05-07T12:54:43;3.33;;;2.28;;
34505;SDS011;20748;42.632;23.198;2023-05-07T12:57:16;4.20;;;2.72;;
34505;SDS011;20748;42.632;23.198;2023-05-07T12:59:51;3.28;;;2.42;;
34505;SDS011;20748;42.632;23.198;2023-05-07T13:02:32;4.97;;;2.97;;
34505;SDS011;20748;42.632;23.198;2023-05-07T13:05:06;4.07;;;2.40;;
34505;SDS011;20748;42.632;23.198;2023-05-07T13:07:39;7.25;;;3.20;;
34505;SDS011;20748;42.632;23.198;2023-05-07T13:10:12;4.13;;;2.53;;
34505;SDS011;20748;42.632;23.198;2023-05-07T13:12:44;4.07;;;2.28;;
34505;SDS011;20748;42.632;23.198;2023-05-07T13:15:16;6.80;;;2.47;;
34505;SDS011;20748;42.632;23.198;2023-05-07T13:17:50;3.28;;;2.25;;
34505;SDS011;20748;42.632;23.198;2023-05-07T13:20:23;3.60;;;2.17;;
34505;SDS011;20748;42.632;23.198;2023-05-07T13:22:55;3.03;;;1.98;;
34505;SDS011;20748;42.632;23.198;2023-05-07T13:25:27;3.47;;;2.40;;
34505;SDS011;20748;42.632;23.198;2023-05-07T13:28:00;4.25;;;2.70;;
34505;SDS011;20748;42.632;23.198;2023-05-07T13:30:42;3.28;;;2.42;;
34505;SDS011;20748;42.632;23.198;2023-05-07T13:33:15;3.08;;;2.17;;
34505;SDS011;20748;42.632;23.198;2023-05-07T13:35:48;3.13;;;2.45;;
34505;SDS011;20748;42.632;23.198;2023-05-07T13:38:20;5.10;;;2.47;;
34505;SDS011;20748;42.632;23.198;2023-05-07T13:40:54;5.00;;;3.22;;
34505;SDS011;20748;42.632;23.198;2023-05-07T13:43:27;3.17;;;2.75;;
34505;SDS011;20748;42.632;23.198;2023-05-07T13:45:59;4.85;;;2.20;;
34505;SDS011;20748;42.632;23.198;2023-05-07T13:48:33;3.53;;;2.70;;
34505;SDS011;20748;42.632;23.198;2023-05-07T13:51:06;6.50;;;3.90;;
34505;SDS011;20748;42.632;23.198;2023-05-07T13:53:38;3.88;;;2.38;;
34505;SDS011;20748;42.632;23.198;2023-05-07T13:56:11;4.30;;;2.85;;
34505;SDS011;20748;42.632;23.198;2023-05-07T13:58:43;3.13;;;2.33;;
34505;SDS011;20748;42.632;23.198;2023-05-07T14:01:30;3.30;;;2.40;;
34505;SDS011;20748;42.632;23.198;2023-05-07T14:04:04;5.68;;;2.53;;
34505;SDS011;20748;42.632;23.198;2023-05-07T14:06:36;3.20;;;2.60;;
34505;SDS011;20748;42.632;23.198;2023-05-07T14:09:08;4.13;;;2.67;;
34505;SDS011;20748;42.632;23.198;2023-05-07T14:11:43;4.13;;;2.55;;
34505;SDS011;20748;42.632;23.198;2023-05-07T14:14:15;3.22;;;2.30;;
34505;SDS011;20748;42.632;23.198;2023-05-07T14:16:48;2.92;;;2.00;;
34505;SDS011;20748;42.632;23.198;2023-05-07T14:19:23;4.35;;;2.25;;
34505;SDS011;20748;42.632;23.198;2023-05-07T14:21:56;3.42;;;2.50;;
34505;SDS011;20748;42.632;23.198;2023-05-07T14:24:30;2.45;;;1.77;;
34505;SDS011;20748;42.632;23.198;2023-05-07T14:29:41;2.97;;;1.80;;
34505;SDS011;20748;42.632;23.198;2023-05-07T14:32:14;3.22;;;2.13;;
34505;SDS011;20748;42.632;23.198;2023-05-07T14:34:47;3.90;;;2.22;;
34505;SDS011;20748;42.632;23.198;2023-05-07T14:37:20;3.20;;;2.25;;
34505;SDS011;20748;42.632;23.198;2023-05-07T14:39:53;3.53;;;1.70;;
34505;SDS011;20748;42.632;23.198;2023-05-07T14:42:25;6.32;;;3.35;;
34505;SDS011;20748;42.632;23.198;2023-05-07T14:44:57;3.20;;;2.33;;
34505;SDS011;20748;42.632;23.198;2023-05-07T14:47:30;3.10;;;2.42;;
34505;SDS011;20748;42.632;23.198;2023-05-07T14:50:03;3.80;;;2.30;;
34505;SDS011;20748;42.632;23.198;2023-05-07T14:52:36;3.28;;;2.40;;
34505;SDS011;20748;42.632;23.198;2023-05-07T14:55:09;3.00;;;2.17;;
34505;SDS011;20748;42.632;23.198;2023-05-07T14:57:41;3.13;;;2.45;;
34505;SDS011;20748;42.632;23.198;2023-05-07T15:00:14;3.33;;;2.13;;
34505;SDS011;20748;42.632;23.198;2023-05-07T15:02:46;3.17;;;2.30;;
34505;SDS011;20748;42.632;23.198;2023-05-07T15:05:20;2.75;;;2.15;;
34505;SDS011;20748;42.632;23.198;2023-05-07T15:07:52;3.15;;;2.40;;
34505;SDS011;20748;42.632;23.198;2023-05-07T15:10:28;4.05;;;2.38;;
34505;SDS011;20748;42.632;23.198;2023-05-07T15:13:01;6.90;;;2.33;;
34505;SDS011;20748;42.632;23.198;2023-05-07T15:15:33;3.40;;;2.33;;
34505;SDS011;20748;42.632;23.198;2023-05-07T15:18:06;3.58;;;2.40;;
34505;SDS011;20748;42.632;23.198;2023-05-07T15:20:39;3.88;;;2.65;;
34505;SDS011;20748;42.632;23.198;2023-05-07T15:23:12;2.78;;;2.10;;
34505;SDS011;20748;42.632;23.198;2023-05-07T15:25:48;3.90;;;2.40;;
34505;SDS011;20748;42.632;23.198;2023-05-07T15:28:23;7.47;;;2.70;;